Great Totham, United Kingdom
Current Conditions -  °F | °C
As of 4:20 PM on Thursday 23 Oct 2014 (Local Time) from EGMC Reporting Station
Scattered Clouds Scattered Clouds  
Wind Chill: 61°   Ceiling: Unl
Heat Index: 61°   Visibility: 6mi
Dew Point: 52°   Wind: 14mph
Humidity: 72%   Direction: 220°SW
Pressure: 30.06"   Gusts: NA
Location:  51.77°N, 0.69°E
Report Text: EGMC 231520Z 22012KT 9999 FEW020 SCT026 16/11 Q1018
Loading
Personal Weather Stations






























Interactive Weather Map
Tropical Storm Tracking
New forecast layout! Learn more

10-Day Weather Forecast

Advertisements
Track Severe Weather on mobile